sensor_id;sensor_type;location;lat;lon;timestamp;P1;durP1;ratioP1;P2;durP2;ratioP2
26951;SDS011;14507;52.418;13.398;2022-07-06T00:01:41;4.68;;;0.77;;
26951;SDS011;14507;52.418;13.398;2022-07-06T00:04:07;2.90;;;0.70;;
26951;SDS011;14507;52.418;13.398;2022-07-06T00:06:32;2.35;;;0.70;;
26951;SDS011;14507;52.418;13.398;2022-07-06T00:08:58;2.75;;;0.80;;
26951;SDS011;14507;52.418;13.398;2022-07-06T00:11:24;2.22;;;0.80;;
26951;SDS011;14507;52.418;13.398;2022-07-06T00:13:50;5.30;;;0.80;;
26951;SDS011;14507;52.418;13.398;2022-07-06T00:16:16;3.67;;;1.17;;
26951;SDS011;14507;52.418;13.398;2022-07-06T00:18:42;4.57;;;0.70;;
26951;SDS011;14507;52.418;13.398;2022-07-06T00:21:08;3.03;;;0.90;;
26951;SDS011;14507;52.418;13.398;2022-07-06T00:23:33;2.58;;;0.80;;
26951;SDS011;14507;52.418;13.398;2022-07-06T00:25:59;5.25;;;0.75;;
26951;SDS011;14507;52.418;13.398;2022-07-06T00:28:25;2.28;;;0.57;;
26951;SDS011;14507;52.418;13.398;2022-07-06T00:30:52;5.05;;;0.90;;
26951;SDS011;14507;52.418;13.398;2022-07-06T00:33:17;4.53;;;0.82;;
26951;SDS011;14507;52.418;13.398;2022-07-06T00:35:43;5.32;;;1.23;;
26951;SDS011;14507;52.418;13.398;2022-07-06T00:38:09;2.58;;;0.85;;
26951;SDS011;14507;52.418;13.398;2022-07-06T00:40:35;3.90;;;0.70;;
26951;SDS011;14507;52.418;13.398;2022-07-06T00:43:00;3.63;;;0.98;;
26951;SDS011;14507;52.418;13.398;2022-07-06T00:45:26;5.97;;;0.88;;
26951;SDS011;14507;52.418;13.398;2022-07-06T00:47:52;2.90;;;0.82;;
26951;SDS011;14507;52.418;13.398;2022-07-06T00:50:17;5.40;;;0.80;;
26951;SDS011;14507;52.418;13.398;2022-07-06T00:52:47;2.88;;;0.93;;
26951;SDS011;14507;52.418;13.398;2022-07-06T00:55:14;5.55;;;1.20;;
26951;SDS011;14507;52.418;13.398;2022-07-06T00:57:42;4.90;;;0.80;;
26951;SDS011;14507;52.418;13.398;2022-07-06T01:00:09;4.72;;;1.20;;
26951;SDS011;14507;52.418;13.398;2022-07-06T01:02:36;3.45;;;0.82;;
26951;SDS011;14507;52.418;13.398;2022-07-06T01:05:05;2.30;;;0.85;;
26951;SDS011;14507;52.418;13.398;2022-07-06T01:07:32;3.10;;;0.75;;
26951;SDS011;14507;52.418;13.398;2022-07-06T01:09:59;2.95;;;0.73;;
26951;SDS011;14507;52.418;13.398;2022-07-06T01:12:24;3.05;;;0.95;;
26951;SDS011;14507;52.418;13.398;2022-07-06T01:14:50;2.42;;;0.60;;
26951;SDS011;14507;52.418;13.398;2022-07-06T01:17:17;1.75;;;0.70;;
26951;SDS011;14507;52.418;13.398;2022-07-06T01:19:43;4.40;;;0.85;;
26951;SDS011;14507;52.418;13.398;2022-07-06T01:22:09;4.68;;;1.15;;
26951;SDS011;14507;52.418;13.398;2022-07-06T01:24:35;3.22;;;1.08;;
26951;SDS011;14507;52.418;13.398;2022-07-06T01:27:03;6.18;;;0.90;;
26951;SDS011;14507;52.418;13.398;2022-07-06T01:29:29;2.75;;;0.82;;
26951;SDS011;14507;52.418;13.398;2022-07-06T01:31:55;3.13;;;0.73;;
26951;SDS011;14507;52.418;13.398;2022-07-06T01:34:21;2.10;;;0.70;;
26951;SDS011;14507;52.418;13.398;2022-07-06T01:36:47;2.08;;;0.68;;
26951;SDS011;14507;52.418;13.398;2022-07-06T01:39:12;5.18;;;0.93;;
26951;SDS011;14507;52.418;13.398;2022-07-06T01:41:38;2.92;;;0.77;;
26951;SDS011;14507;52.418;13.398;2022-07-06T01:44:04;2.85;;;0.68;;
26951;SDS011;14507;52.418;13.398;2022-07-06T01:46:31;4.72;;;0.98;;
26951;SDS011;14507;52.418;13.398;2022-07-06T01:48:56;3.67;;;0.80;;
26951;SDS011;14507;52.418;13.398;2022-07-06T01:51:22;3.20;;;0.82;;
26951;SDS011;14507;52.418;13.398;2022-07-06T01:53:49;3.03;;;0.75;;
26951;SDS011;14507;52.418;13.398;2022-07-06T01:56:15;2.53;;;0.80;;
26951;SDS011;14507;52.418;13.398;2022-07-06T01:58:48;6.15;;;1.30;;
26951;SDS011;14507;52.418;13.398;2022-07-06T02:01:14;5.78;;;1.00;;
26951;SDS011;14507;52.418;13.398;2022-07-06T02:03:42;2.28;;;0.70;;
26951;SDS011;14507;52.418;13.398;2022-07-06T02:06:08;7.07;;;1.02;;
26951;SDS011;14507;52.418;13.398;2022-07-06T02:08:34;2.85;;;1.08;;
26951;SDS011;14507;52.418;13.398;2022-07-06T02:11:01;4.97;;;1.15;;
26951;SDS011;14507;52.418;13.398;2022-07-06T02:13:33;5.40;;;1.23;;
26951;SDS011;14507;52.418;13.398;2022-07-06T02:16:00;6.32;;;1.20;;
26951;SDS011;14507;52.418;13.398;2022-07-06T02:18:25;4.47;;;1.30;;
26951;SDS011;14507;52.418;13.398;2022-07-06T02:20:51;6.07;;;1.27;;
26951;SDS011;14507;52.418;13.398;2022-07-06T02:23:17;2.22;;;0.80;;
26951;SDS011;14507;52.418;13.398;2022-07-06T02:25:42;2.67;;;1.00;;
26951;SDS011;14507;52.418;13.398;2022-07-06T02:28:08;4.22;;;0.80;;
26951;SDS011;14507;52.418;13.398;2022-07-06T02:30:33;3.28;;;0.93;;
26951;SDS011;14507;52.418;13.398;2022-07-06T02:32:59;5.32;;;1.02;;
26951;SDS011;14507;52.418;13.398;2022-07-06T02:35:25;3.22;;;0.93;;
26951;SDS011;14507;52.418;13.398;2022-07-06T02:37:51;4.80;;;1.20;;
26951;SDS011;14507;52.418;13.398;2022-07-06T02:40:17;5.50;;;1.00;;
26951;SDS011;14507;52.418;13.398;2022-07-06T02:42:42;4.93;;;1.20;;
26951;SDS011;14507;52.418;13.398;2022-07-06T02:45:08;3.00;;;1.08;;
26951;SDS011;14507;52.418;13.398;2022-07-06T02:47:34;3.42;;;1.05;;
26951;SDS011;14507;52.418;13.398;2022-07-06T02:50:00;6.68;;;1.05;;
26951;SDS011;14507;52.418;13.398;2022-07-06T02:52:26;6.45;;;1.38;;
26951;SDS011;14507;52.418;13.398;2022-07-06T02:54:52;2.15;;;0.80;;
26951;SDS011;14507;52.418;13.398;2022-07-06T02:57:18;3.10;;;0.85;;
26951;SDS011;14507;52.418;13.398;2022-07-06T02:59:44;2.88;;;0.82;;
26951;SDS011;14507;52.418;13.398;2022-07-06T03:02:10;6.38;;;1.42;;
26951;SDS011;14507;52.418;13.398;2022-07-06T03:04:36;4.13;;;1.23;;
26951;SDS011;14507;52.418;13.398;2022-07-06T03:07:02;4.57;;;1.17;;
26951;SDS011;14507;52.418;13.398;2022-07-06T03:09:28;3.47;;;1.30;;
26951;SDS011;14507;52.418;13.398;2022-07-06T03:11:54;2.40;;;1.08;;
26951;SDS011;14507;52.418;13.398;2022-07-06T03:14:19;3.08;;;0.90;;
26951;SDS011;14507;52.418;13.398;2022-07-06T03:16:45;6.03;;;1.30;;
26951;SDS011;14507;52.418;13.398;2022-07-06T03:19:11;6.30;;;1.25;;
26951;SDS011;14507;52.418;13.398;2022-07-06T03:21:37;6.88;;;1.35;;
26951;SDS011;14507;52.418;13.398;2022-07-06T03:24:02;7.18;;;1.30;;
26951;SDS011;14507;52.418;13.398;2022-07-06T03:26:28;12.73;;;1.65;;
26951;SDS011;14507;52.418;13.398;2022-07-06T03:28:54;4.30;;;1.40;;
26951;SDS011;14507;52.418;13.398;2022-07-06T03:31:20;7.40;;;1.20;;
26951;SDS011;14507;52.418;13.398;2022-07-06T03:33:45;7.15;;;1.58;;
26951;SDS011;14507;52.418;13.398;2022-07-06T03:36:11;8.05;;;1.45;;
26951;SDS011;14507;52.418;13.398;2022-07-06T03:38:36;8.88;;;1.40;;
26951;SDS011;14507;52.418;13.398;2022-07-06T03:41:02;4.95;;;1.23;;
26951;SDS011;14507;52.418;13.398;2022-07-06T03:43:28;4.28;;;1.30;;
26951;SDS011;14507;52.418;13.398;2022-07-06T03:45:55;5.00;;;1.13;;
26951;SDS011;14507;52.418;13.398;2022-07-06T03:48:20;4.53;;;1.17;;
26951;SDS011;14507;52.418;13.398;2022-07-06T03:50:46;4.75;;;1.23;;
26951;SDS011;14507;52.418;13.398;2022-07-06T03:53:11;4.60;;;1.23;;
26951;SDS011;14507;52.418;13.398;2022-07-06T03:55:37;4.10;;;0.90;;
26951;SDS011;14507;52.418;13.398;2022-07-06T03:58:03;4.82;;;1.40;;
26951;SDS011;14507;52.418;13.398;2022-07-06T04:00:29;4.80;;;1.05;;
26951;SDS011;14507;52.418;13.398;2022-07-06T04:02:55;4.43;;;1.10;;
26951;SDS011;14507;52.418;13.398;2022-07-06T04:05:20;8.15;;;1.35;;
26951;SDS011;14507;52.418;13.398;2022-07-06T04:07:47;5.35;;;1.50;;
26951;SDS011;14507;52.418;13.398;2022-07-06T04:10:13;5.10;;;1.60;;
26951;SDS011;14507;52.418;13.398;2022-07-06T04:12:40;9.10;;;1.77;;
26951;SDS011;14507;52.418;13.398;2022-07-06T04:15:07;5.97;;;1.75;;
26951;SDS011;14507;52.418;13.398;2022-07-06T04:17:33;4.07;;;1.48;;
26951;SDS011;14507;52.418;13.398;2022-07-06T04:20:16;5.95;;;1.70;;
26951;SDS011;14507;52.418;13.398;2022-07-06T04:22:42;6.90;;;1.33;;
26951;SDS011;14507;52.418;13.398;2022-07-06T04:25:08;4.30;;;1.30;;
26951;SDS011;14507;52.418;13.398;2022-07-06T04:27:34;6.93;;;1.70;;
26951;SDS011;14507;52.418;13.398;2022-07-06T04:29:59;4.63;;;1.60;;
26951;SDS011;14507;52.418;13.398;2022-07-06T04:32:26;5.80;;;1.45;;
26951;SDS011;14507;52.418;13.398;2022-07-06T04:34:51;7.20;;;1.70;;
26951;SDS011;14507;52.418;13.398;2022-07-06T04:37:17;5.57;;;1.55;;
26951;SDS011;14507;52.418;13.398;2022-07-06T04:39:43;7.50;;;1.65;;
26951;SDS011;14507;52.418;13.398;2022-07-06T04:42:08;4.75;;;1.20;;
26951;SDS011;14507;52.418;13.398;2022-07-06T04:44:34;8.10;;;2.15;;
26951;SDS011;14507;52.418;13.398;2022-07-06T04:47:00;7.13;;;1.90;;
26951;SDS011;14507;52.418;13.398;2022-07-06T04:49:25;4.78;;;1.65;;
26951;SDS011;14507;52.418;13.398;2022-07-06T04:51:51;5.50;;;1.48;;
26951;SDS011;14507;52.418;13.398;2022-07-06T04:54:16;5.40;;;1.17;;
26951;SDS011;14507;52.418;13.398;2022-07-06T04:56:42;4.15;;;1.52;;
26951;SDS011;14507;52.418;13.398;2022-07-06T04:59:08;4.22;;;1.50;;
26951;SDS011;14507;52.418;13.398;2022-07-06T05:01:33;5.60;;;1.42;;
26951;SDS011;14507;52.418;13.398;2022-07-06T05:03:59;4.57;;;1.27;;
26951;SDS011;14507;52.418;13.398;2022-07-06T05:06:25;6.10;;;1.45;;
26951;SDS011;14507;52.418;13.398;2022-07-06T05:08:51;5.70;;;1.30;;
26951;SDS011;14507;52.418;13.398;2022-07-06T05:11:16;6.45;;;1.38;;
26951;SDS011;14507;52.418;13.398;2022-07-06T05:13:42;5.55;;;1.40;;
26951;SDS011;14507;52.418;13.398;2022-07-06T05:16:08;6.65;;;2.03;;
26951;SDS011;14507;52.418;13.398;2022-07-06T05:18:34;4.88;;;1.30;;
26951;SDS011;14507;52.418;13.398;2022-07-06T05:20:59;6.70;;;1.15;;
26951;SDS011;14507;52.418;13.398;2022-07-06T05:23:25;4.30;;;1.20;;
26951;SDS011;14507;52.418;13.398;2022-07-06T05:25:51;6.47;;;1.38;;
26951;SDS011;14507;52.418;13.398;2022-07-06T05:28:17;6.50;;;1.00;;
26951;SDS011;14507;52.418;13.398;2022-07-06T05:30:43;5.07;;;1.20;;
26951;SDS011;14507;52.418;13.398;2022-07-06T05:33:09;4.93;;;1.20;;
26951;SDS011;14507;52.418;13.398;2022-07-06T05:35:35;6.93;;;1.08;;
26951;SDS011;14507;52.418;13.398;2022-07-06T05:38:00;4.75;;;1.00;;
26951;SDS011;14507;52.418;13.398;2022-07-06T05:40:26;5.93;;;1.30;;
26951;SDS011;14507;52.418;13.398;2022-07-06T05:42:52;6.53;;;1.00;;
26951;SDS011;14507;52.418;13.398;2022-07-06T05:45:17;7.47;;;1.00;;
26951;SDS011;14507;52.418;13.398;2022-07-06T05:47:43;10.15;;;1.35;;
26951;SDS011;14507;52.418;13.398;2022-07-06T05:50:27;5.85;;;1.02;;
26951;SDS011;14507;52.418;13.398;2022-07-06T05:52:57;4.72;;;0.82;;
26951;SDS011;14507;52.418;13.398;2022-07-06T05:55:24;4.05;;;0.90;;
26951;SDS011;14507;52.418;13.398;2022-07-06T05:57:53;4.75;;;1.30;;
26951;SDS011;14507;52.418;13.398;2022-07-06T06:00:20;8.85;;;0.90;;
26951;SDS011;14507;52.418;13.398;2022-07-06T06:02:46;9.18;;;1.15;;
26951;SDS011;14507;52.418;13.398;2022-07-06T06:05:13;5.20;;;1.10;;
26951;SDS011;14507;52.418;13.398;2022-07-06T06:07:39;5.07;;;1.00;;
26951;SDS011;14507;52.418;13.398;2022-07-06T06:10:08;5.78;;;1.20;;
26951;SDS011;14507;52.418;13.398;2022-07-06T06:12:35;2.10;;;0.90;;
26951;SDS011;14507;52.418;13.398;2022-07-06T06:15:02;6.40;;;0.90;;
26951;SDS011;14507;52.418;13.398;2022-07-06T06:17:28;4.47;;;1.02;;
26951;SDS011;14507;52.418;13.398;2022-07-06T06:19:54;4.95;;;1.23;;
26951;SDS011;14507;52.418;13.398;2022-07-06T06:22:20;3.38;;;0.75;;
26951;SDS011;14507;52.418;13.398;2022-07-06T06:24:45;4.32;;;0.80;;
26951;SDS011;14507;52.418;13.398;2022-07-06T06:27:11;8.73;;;1.30;;
26951;SDS011;14507;52.418;13.398;2022-07-06T06:29:37;4.88;;;1.10;;
26951;SDS011;14507;52.418;13.398;2022-07-06T06:32:02;5.82;;;1.00;;
26951;SDS011;14507;52.418;13.398;2022-07-06T06:34:30;3.10;;;1.00;;
26951;SDS011;14507;52.418;13.398;2022-07-06T06:36:56;5.80;;;0.80;;
26951;SDS011;14507;52.418;13.398;2022-07-06T06:39:21;2.90;;;0.85;;
26951;SDS011;14507;52.418;13.398;2022-07-06T06:41:47;2.50;;;0.70;;
26951;SDS011;14507;52.418;13.398;2022-07-06T06:44:12;7.30;;;0.77;;
26951;SDS011;14507;52.418;13.398;2022-07-06T06:46:39;6.47;;;1.00;;
26951;SDS011;14507;52.418;13.398;2022-07-06T06:49:05;4.53;;;1.20;;
26951;SDS011;14507;52.418;13.398;2022-07-06T06:51:31;6.35;;;0.98;;
26951;SDS011;14507;52.418;13.398;2022-07-06T06:53:57;4.40;;;0.80;;
26951;SDS011;14507;52.418;13.398;2022-07-06T06:56:22;4.03;;;1.00;;
26951;SDS011;14507;52.418;13.398;2022-07-06T06:58:48;5.45;;;0.90;;
26951;SDS011;14507;52.418;13.398;2022-07-06T07:01:13;5.22;;;0.90;;
26951;SDS011;14507;52.418;13.398;2022-07-06T07:03:45;5.22;;;1.17;;
26951;SDS011;14507;52.418;13.398;2022-07-06T07:06:11;2.95;;;0.80;;
26951;SDS011;14507;52.418;13.398;2022-07-06T07:08:37;5.18;;;0.90;;
26951;SDS011;14507;52.418;13.398;2022-07-06T07:11:02;5.28;;;1.30;;
26951;SDS011;14507;52.418;13.398;2022-07-06T07:13:28;5.57;;;1.00;;
26951;SDS011;14507;52.418;13.398;2022-07-06T07:15:53;3.75;;;0.98;;
26951;SDS011;14507;52.418;13.398;2022-07-06T07:18:19;7.50;;;0.80;;
26951;SDS011;14507;52.418;13.398;2022-07-06T07:20:45;5.68;;;1.05;;
26951;SDS011;14507;52.418;13.398;2022-07-06T07:23:10;3.78;;;0.75;;
26951;SDS011;14507;52.418;13.398;2022-07-06T07:25:36;4.22;;;1.08;;
26951;SDS011;14507;52.418;13.398;2022-07-06T07:28:03;5.75;;;1.02;;
26951;SDS011;14507;52.418;13.398;2022-07-06T07:30:29;4.32;;;0.80;;
26951;SDS011;14507;52.418;13.398;2022-07-06T07:32:55;4.00;;;0.95;;
26951;SDS011;14507;52.418;13.398;2022-07-06T07:35:21;5.85;;;1.10;;
26951;SDS011;14507;52.418;13.398;2022-07-06T07:37:47;6.15;;;1.15;;
26951;SDS011;14507;52.418;13.398;2022-07-06T07:40:12;5.78;;;1.00;;
26951;SDS011;14507;52.418;13.398;2022-07-06T07:42:38;5.22;;;1.13;;
26951;SDS011;14507;52.418;13.398;2022-07-06T07:45:06;3.75;;;0.98;;
26951;SDS011;14507;52.418;13.398;2022-07-06T07:47:32;4.97;;;0.98;;
26951;SDS011;14507;52.418;13.398;2022-07-06T07:49:58;4.43;;;0.77;;
26951;SDS011;14507;52.418;13.398;2022-07-06T07:52:23;3.80;;;0.88;;
26951;SDS011;14507;52.418;13.398;2022-07-06T07:57:17;2.72;;;0.63;;
26951;SDS011;14507;52.418;13.398;2022-07-06T07:59:42;2.92;;;0.60;;
26951;SDS011;14507;52.418;13.398;2022-07-06T08:02:08;1.83;;;0.47;;
26951;SDS011;14507;52.418;13.398;2022-07-06T08:04:34;2.85;;;0.55;;
26951;SDS011;14507;52.418;13.398;2022-07-06T08:07:00;3.35;;;0.35;;
26951;SDS011;14507;52.418;13.398;2022-07-06T08:09:25;2.50;;;0.65;;
26951;SDS011;14507;52.418;13.398;2022-07-06T08:11:51;2.55;;;0.70;;
26951;SDS011;14507;52.418;13.398;2022-07-06T08:14:16;5.07;;;0.70;;
26951;SDS011;14507;52.418;13.398;2022-07-06T08:16:42;1.73;;;0.43;;
26951;SDS011;14507;52.418;13.398;2022-07-06T08:19:08;3.00;;;0.60;;
26951;SDS011;14507;52.418;13.398;2022-07-06T08:21:34;1.63;;;0.57;;
26951;SDS011;14507;52.418;13.398;2022-07-06T08:24:00;6.47;;;0.63;;
26951;SDS011;14507;52.418;13.398;2022-07-06T08:26:27;4.68;;;0.70;;
26951;SDS011;14507;52.418;13.398;2022-07-06T08:28:52;6.88;;;1.20;;
26951;SDS011;14507;52.418;13.398;2022-07-06T08:31:18;4.65;;;0.77;;
26951;SDS011;14507;52.418;13.398;2022-07-06T08:33:44;4.40;;;0.60;;
26951;SDS011;14507;52.418;13.398;2022-07-06T08:36:09;3.20;;;1.00;;
26951;SDS011;14507;52.418;13.398;2022-07-06T08:38:35;2.85;;;0.60;;
26951;SDS011;14507;52.418;13.398;2022-07-06T08:41:01;4.85;;;0.82;;
26951;SDS011;14507;52.418;13.398;2022-07-06T08:43:27;3.10;;;0.68;;
26951;SDS011;14507;52.418;13.398;2022-07-06T08:45:53;2.47;;;0.70;;
26951;SDS011;14507;52.418;13.398;2022-07-06T08:48:19;5.05;;;0.88;;
26951;SDS011;14507;52.418;13.398;2022-07-06T08:50:48;3.75;;;0.93;;
26951;SDS011;14507;52.418;13.398;2022-07-06T08:53:14;2.83;;;0.57;;
26951;SDS011;14507;52.418;13.398;2022-07-06T08:55:42;3.95;;;0.70;;
26951;SDS011;14507;52.418;13.398;2022-07-06T08:58:07;4.45;;;0.70;;
26951;SDS011;14507;52.418;13.398;2022-07-06T09:00:34;2.53;;;0.55;;
26951;SDS011;14507;52.418;13.398;2022-07-06T09:03:01;3.83;;;0.60;;
26951;SDS011;14507;52.418;13.398;2022-07-06T09:05:27;3.35;;;0.50;;
26951;SDS011;14507;52.418;13.398;2022-07-06T09:07:54;4.47;;;0.70;;
26951;SDS011;14507;52.418;13.398;2022-07-06T09:10:21;3.47;;;0.80;;
26951;SDS011;14507;52.418;13.398;2022-07-06T09:12:47;2.30;;;0.45;;
26951;SDS011;14507;52.418;13.398;2022-07-06T09:15:13;3.95;;;0.60;;
26951;SDS011;14507;52.418;13.398;2022-07-06T09:17:40;2.20;;;0.35;;
26951;SDS011;14507;52.418;13.398;2022-07-06T09:20:08;3.70;;;0.60;;
26951;SDS011;14507;52.418;13.398;2022-07-06T09:25:03;2.90;;;0.63;;
26951;SDS011;14507;52.418;13.398;2022-07-06T09:27:32;1.95;;;0.60;;
26951;SDS011;14507;52.418;13.398;2022-07-06T09:30:03;4.38;;;1.17;;
26951;SDS011;14507;52.418;13.398;2022-07-06T09:32:29;2.88;;;0.60;;
26951;SDS011;14507;52.418;13.398;2022-07-06T09:34:55;5.38;;;0.70;;
26951;SDS011;14507;52.418;13.398;2022-07-06T09:37:21;5.18;;;0.60;;
26951;SDS011;14507;52.418;13.398;2022-07-06T09:39:48;3.15;;;0.55;;
26951;SDS011;14507;52.418;13.398;2022-07-06T09:42:14;4.78;;;0.60;;
26951;SDS011;14507;52.418;13.398;2022-07-06T09:44:40;1.63;;;0.50;;
26951;SDS011;14507;52.418;13.398;2022-07-06T09:47:07;3.05;;;0.43;;
26951;SDS011;14507;52.418;13.398;2022-07-06T09:49:34;3.08;;;0.50;;
26951;SDS011;14507;52.418;13.398;2022-07-06T09:52:02;6.10;;;0.68;;
26951;SDS011;14507;52.418;13.398;2022-07-06T09:54:29;2.08;;;0.40;;
26951;SDS011;14507;52.418;13.398;2022-07-06T09:56:55;1.13;;;0.40;;
26951;SDS011;14507;52.418;13.398;2022-07-06T09:59:22;1.80;;;0.65;;
26951;SDS011;14507;52.418;13.398;2022-07-06T10:02:10;2.25;;;0.47;;
26951;SDS011;14507;52.418;13.398;2022-07-06T10:04:38;1.05;;;0.35;;
26951;SDS011;14507;52.418;13.398;2022-07-06T10:07:04;3.92;;;0.70;;
26951;SDS011;14507;52.418;13.398;2022-07-06T10:09:31;4.22;;;0.57;;
26951;SDS011;14507;52.418;13.398;2022-07-06T10:11:59;3.63;;;0.50;;
26951;SDS011;14507;52.418;13.398;2022-07-06T10:14:26;6.05;;;0.60;;
26951;SDS011;14507;52.418;13.398;2022-07-06T10:16:56;2.28;;;0.60;;
26951;SDS011;14507;52.418;13.398;2022-07-06T10:19:24;3.67;;;0.73;;
26951;SDS011;14507;52.418;13.398;2022-07-06T10:21:50;3.03;;;0.50;;
26951;SDS011;14507;52.418;13.398;2022-07-06T10:24:17;3.70;;;0.52;;
26951;SDS011;14507;52.418;13.398;2022-07-06T10:26:44;2.07;;;0.40;;
26951;SDS011;14507;52.418;13.398;2022-07-06T10:29:11;1.97;;;0.50;;
26951;SDS011;14507;52.418;13.398;2022-07-06T10:31:38;4.82;;;0.50;;
26951;SDS011;14507;52.418;13.398;2022-07-06T10:34:09;2.92;;;0.50;;
26951;SDS011;14507;52.418;13.398;2022-07-06T10:36:38;1.83;;;0.43;;
26951;SDS011;14507;52.418;13.398;2022-07-06T10:39:07;3.10;;;0.70;;
26951;SDS011;14507;52.418;13.398;2022-07-06T10:41:52;2.80;;;0.45;;
26951;SDS011;14507;52.418;13.398;2022-07-06T10:44:23;2.50;;;0.50;;
26951;SDS011;14507;52.418;13.398;2022-07-06T10:46:54;2.90;;;0.50;;
26951;SDS011;14507;52.418;13.398;2022-07-06T10:49:21;3.95;;;0.57;;
26951;SDS011;14507;52.418;13.398;2022-07-06T10:51:47;4.75;;;0.65;;
26951;SDS011;14507;52.418;13.398;2022-07-06T10:54:14;4.40;;;0.47;;
26951;SDS011;14507;52.418;13.398;2022-07-06T10:56:42;1.92;;;0.28;;
26951;SDS011;14507;52.418;13.398;2022-07-06T11:04:37;1.90;;;0.60;;
26951;SDS011;14507;52.418;13.398;2022-07-06T11:07:10;3.50;;;0.50;;
26951;SDS011;14507;52.418;13.398;2022-07-06T11:09:37;0.82;;;0.30;;
26951;SDS011;14507;52.418;13.398;2022-07-06T11:12:19;2.05;;;0.30;;
26951;SDS011;14507;52.418;13.398;2022-07-06T11:14:45;3.35;;;0.50;;
26951;SDS011;14507;52.418;13.398;2022-07-06T11:17:12;1.83;;;0.50;;
26951;SDS011;14507;52.418;13.398;2022-07-06T11:19:47;5.15;;;0.80;;
26951;SDS011;14507;52.418;13.398;2022-07-06T11:22:15;3.40;;;0.38;;
26951;SDS011;14507;52.418;13.398;2022-07-06T11:24:41;2.50;;;0.50;;
26951;SDS011;14507;52.418;13.398;2022-07-06T11:27:07;2.08;;;0.50;;
26951;SDS011;14507;52.418;13.398;2022-07-06T11:29:34;5.00;;;0.57;;
26951;SDS011;14507;52.418;13.398;2022-07-06T11:32:03;4.45;;;0.70;;
26951;SDS011;14507;52.418;13.398;2022-07-06T11:34:32;1.80;;;0.90;;
26951;SDS011;14507;52.418;13.398;2022-07-06T11:37:02;3.08;;;0.63;;
26951;SDS011;14507;52.418;13.398;2022-07-06T11:39:33;4.13;;;0.95;;
26951;SDS011;14507;52.418;13.398;2022-07-06T11:42:00;2.63;;;0.57;;
26951;SDS011;14507;52.418;13.398;2022-07-06T11:44:26;2.30;;;0.50;;
26951;SDS011;14507;52.418;13.398;2022-07-06T11:46:52;3.00;;;0.70;;
26951;SDS011;14507;52.418;13.398;2022-07-06T11:49:21;2.33;;;0.77;;
26951;SDS011;14507;52.418;13.398;2022-07-06T11:51:47;2.42;;;0.70;;
26951;SDS011;14507;52.418;13.398;2022-07-06T11:54:14;1.95;;;0.52;;
26951;SDS011;14507;52.418;13.398;2022-07-06T11:56:45;1.75;;;0.50;;
26951;SDS011;14507;52.418;13.398;2022-07-06T11:59:19;2.55;;;0.93;;
26951;SDS011;14507;52.418;13.398;2022-07-06T12:01:49;1.70;;;0.50;;
26951;SDS011;14507;52.418;13.398;2022-07-06T12:04:24;3.17;;;0.90;;
26951;SDS011;14507;52.418;13.398;2022-07-06T12:06:50;1.55;;;0.60;;
26951;SDS011;14507;52.418;13.398;2022-07-06T12:09:15;0.73;;;0.28;;
26951;SDS011;14507;52.418;13.398;2022-07-06T12:11:43;1.50;;;0.30;;
26951;SDS011;14507;52.418;13.398;2022-07-06T12:14:13;2.70;;;0.43;;
26951;SDS011;14507;52.418;13.398;2022-07-06T12:16:41;2.60;;;0.40;;
26951;SDS011;14507;52.418;13.398;2022-07-06T12:19:06;2.65;;;0.50;;
26951;SDS011;14507;52.418;13.398;2022-07-06T12:21:33;1.83;;;0.40;;
26951;SDS011;14507;52.418;13.398;2022-07-06T12:23:59;2.65;;;0.47;;
26951;SDS011;14507;52.418;13.398;2022-07-06T12:26:26;5.25;;;0.73;;
26951;SDS011;14507;52.418;13.398;2022-07-06T12:29:04;7.05;;;0.65;;
26951;SDS011;14507;52.418;13.398;2022-07-06T12:31:54;2.58;;;0.50;;
26951;SDS011;14507;52.418;13.398;2022-07-06T12:34:22;4.93;;;0.60;;
26951;SDS011;14507;52.418;13.398;2022-07-06T12:36:54;2.80;;;0.50;;
26951;SDS011;14507;52.418;13.398;2022-07-06T12:39:30;2.85;;;0.90;;
26951;SDS011;14507;52.418;13.398;2022-07-06T12:44:29;3.33;;;0.50;;
26951;SDS011;14507;52.418;13.398;2022-07-06T12:47:06;3.85;;;0.52;;
26951;SDS011;14507;52.418;13.398;2022-07-06T12:49:33;3.27;;;0.60;;
26951;SDS011;14507;52.418;13.398;2022-07-06T12:54:32;1.77;;;0.50;;
26951;SDS011;14507;52.418;13.398;2022-07-06T12:57:10;2.35;;;0.60;;
26951;SDS011;14507;52.418;13.398;2022-07-06T13:00:03;3.80;;;0.68;;
26951;SDS011;14507;52.418;13.398;2022-07-06T13:02:30;2.15;;;0.55;;
26951;SDS011;14507;52.418;13.398;2022-07-06T13:05:02;3.67;;;0.73;;
26951;SDS011;14507;52.418;13.398;2022-07-06T13:07:30;3.65;;;0.70;;
26951;SDS011;14507;52.418;13.398;2022-07-06T13:09:57;1.63;;;0.55;;
26951;SDS011;14507;52.418;13.398;2022-07-06T13:12:23;4.85;;;1.27;;
26951;SDS011;14507;52.418;13.398;2022-07-06T13:14:49;4.60;;;1.10;;
26951;SDS011;14507;52.418;13.398;2022-07-06T13:17:16;4.60;;;1.77;;
26951;SDS011;14507;52.418;13.398;2022-07-06T13:19:41;5.25;;;1.70;;
26951;SDS011;14507;52.418;13.398;2022-07-06T13:22:07;6.72;;;2.00;;
26951;SDS011;14507;52.418;13.398;2022-07-06T13:24:34;7.38;;;2.70;;
26951;SDS011;14507;52.418;13.398;2022-07-06T13:27:00;6.57;;;2.83;;
26951;SDS011;14507;52.418;13.398;2022-07-06T13:29:25;6.80;;;2.90;;
26951;SDS011;14507;52.418;13.398;2022-07-06T13:31:51;8.45;;;3.10;;
26951;SDS011;14507;52.418;13.398;2022-07-06T13:34:17;7.20;;;3.70;;
26951;SDS011;14507;52.418;13.398;2022-07-06T13:36:43;12.27;;;5.72;;
26951;SDS011;14507;52.418;13.398;2022-07-06T13:39:08;12.85;;;7.03;;
26951;SDS011;14507;52.418;13.398;2022-07-06T13:41:35;13.80;;;7.32;;
26951;SDS011;14507;52.418;13.398;2022-07-06T13:44:01;9.93;;;6.15;;
26951;SDS011;14507;52.418;13.398;2022-07-06T13:46:28;15.02;;;7.55;;
26951;SDS011;14507;52.418;13.398;2022-07-06T13:48:54;14.90;;;7.93;;
26951;SDS011;14507;52.418;13.398;2022-07-06T13:51:21;11.37;;;6.83;;
26951;SDS011;14507;52.418;13.398;2022-07-06T13:53:47;14.65;;;8.25;;
26951;SDS011;14507;52.418;13.398;2022-07-06T13:56:13;14.82;;;7.25;;
26951;SDS011;14507;52.418;13.398;2022-07-06T13:58:38;15.93;;;6.90;;
26951;SDS011;14507;52.418;13.398;2022-07-06T14:01:04;13.25;;;7.05;;
26951;SDS011;14507;52.418;13.398;2022-07-06T14:03:30;12.82;;;7.32;;
26951;SDS011;14507;52.418;13.398;2022-07-06T14:05:56;10.52;;;5.57;;
26951;SDS011;14507;52.418;13.398;2022-07-06T14:08:23;12.03;;;6.37;;
26951;SDS011;14507;52.418;13.398;2022-07-06T14:10:49;19.33;;;7.07;;
26951;SDS011;14507;52.418;13.398;2022-07-06T14:13:15;23.83;;;7.03;;
26951;SDS011;14507;52.418;13.398;2022-07-06T14:15:40;9.40;;;4.43;;
26951;SDS011;14507;52.418;13.398;2022-07-06T14:18:06;12.10;;;5.00;;
26951;SDS011;14507;52.418;13.398;2022-07-06T14:20:31;11.57;;;4.03;;
26951;SDS011;14507;52.418;13.398;2022-07-06T14:22:57;8.25;;;3.33;;
26951;SDS011;14507;52.418;13.398;2022-07-06T14:25:23;7.82;;;3.08;;
26951;SDS011;14507;52.418;13.398;2022-07-06T14:27:48;4.60;;;2.08;;
26951;SDS011;14507;52.418;13.398;2022-07-06T14:30:14;8.65;;;1.50;;
26951;SDS011;14507;52.418;13.398;2022-07-06T14:32:39;3.33;;;1.15;;
26951;SDS011;14507;52.418;13.398;2022-07-06T14:35:05;5.30;;;1.42;;
26951;SDS011;14507;52.418;13.398;2022-07-06T14:37:31;4.68;;;1.48;;
26951;SDS011;14507;52.418;13.398;2022-07-06T14:39:56;3.78;;;1.20;;
26951;SDS011;14507;52.418;13.398;2022-07-06T14:42:22;5.28;;;1.40;;
26951;SDS011;14507;52.418;13.398;2022-07-06T14:44:47;4.82;;;0.70;;
26951;SDS011;14507;52.418;13.398;2022-07-06T14:47:14;3.45;;;0.80;;